Time;durP1;ratioP1;P1;durP2;ratioP2;P2;SDS_P1;SDS_P2;PMS_P1;PMS_P2;Temp;Humidity;BMP_temperature;BMP_pressure;BME280_temperature;BME280_humidity;BME280_pressure;Samples;Min_cycle;Max_cycle;Signal;HPM_P1;HPM_P2
2022/12/14 00:01:24;;;;;;;15.95;9.40;;;;;;;;;;4991595;28;20062;-77
2022/12/14 00:03:51;;;;;;;17.13;10.63;;;;;;;;;;4975817;28;20046;-78
2022/12/14 00:06:19;;;;;;;14.98;9.88;;;;;;;;;;4975848;28;20573;-78
2022/12/14 00:08:46;;;;;;;16.67;10.50;;;;;;;;;;4978154;28;20067;-78
2022/12/14 00:11:14;;;;;;;16.27;10.25;;;;;;;;;;4978372;28;20050;-78
2022/12/14 00:13:41;;;;;;;13.27;8.88;;;;;;;;;;4977178;28;20051;-78
2022/12/14 00:16:11;;;;;;;16.10;9.93;;;;;;;;;;4960716;28;20593;-78
2022/12/14 00:18:38;;;;;;;14.00;9.60;;;;;;;;;;4959430;28;20062;-77
2022/12/14 00:21:06;;;;;;;15.55;9.98;;;;;;;;;;4974618;28;20054;-77
2022/12/14 00:23:33;;;;;;;16.15;10.30;;;;;;;;;;4974185;28;20061;-77
2022/12/14 00:26:21;;;;;;;14.43;9.40;;;;;;;;;;4974600;28;20593;-77
2022/12/14 00:28:50;;;;;;;15.55;9.60;;;;;;;;;;4978370;28;20065;-78
2022/12/14 00:31:17;;;;;;;14.25;9.07;;;;;;;;;;4977496;28;20057;-79
2022/12/14 00:33:44;;;;;;;17.15;9.93;;;;;;;;;;4994116;28;20085;-78
2022/12/14 00:36:11;;;;;;;14.57;10.20;;;;;;;;;;4979018;28;20058;-79
2022/12/14 00:38:38;;;;;;;15.77;10.65;;;;;;;;;;4978622;28;20057;-79
2022/12/14 00:41:05;;;;;;;14.57;9.75;;;;;;;;;;4977018;28;20046;-79
2022/12/14 00:43:32;;;;;;;13.90;8.95;;;;;;;;;;4978491;28;20054;-79
2022/12/14 00:45:59;;;;;;;12.60;8.55;;;;;;;;;;4962233;28;20054;-78
2022/12/14 00:48:26;;;;;;;13.80;9.30;;;;;;;;;;4993721;28;20054;-78
2022/12/14 00:50:54;;;;;;;13.88;9.93;;;;;;;;;;4961414;28;20050;-78
2022/12/14 00:53:21;;;;;;;15.15;8.93;;;;;;;;;;4977307;28;20076;-78
2022/12/14 00:55:48;;;;;;;13.15;8.88;;;;;;;;;;4959930;28;20061;-77
2022/12/14 00:58:17;;;;;;;15.20;10.05;;;;;;;;;;4991731;28;20054;-78
2022/12/14 01:00:44;;;;;;;12.43;9.15;;;;;;;;;;4975856;28;20073;-78
2022/12/14 01:03:11;;;;;;;14.65;10.00;;;;;;;;;;4992143;28;20054;-78
2022/12/14 01:05:39;;;;;;;15.55;11.00;;;;;;;;;;4960437;28;20554;-80
2022/12/14 01:08:06;;;;;;;13.70;9.82;;;;;;;;;;4957863;28;20061;-76
2022/12/14 01:10:33;;;;;;;14.68;9.57;;;;;;;;;;4989456;28;20055;-79
2022/12/14 01:13:00;;;;;;;14.30;10.07;;;;;;;;;;4993877;28;20062;-79
2022/12/14 01:15:27;;;;;;;14.80;10.10;;;;;;;;;;4976397;28;20450;-78
2022/12/14 01:17:53;;;;;;;18.65;11.32;;;;;;;;;;5011909;28;20045;-77
2022/12/14 01:20:20;;;;;;;15.40;10.40;;;;;;;;;;4996592;28;20438;-79
2022/12/14 01:22:53;;;;;;;15.00;9.65;;;;;;;;;;4982861;28;20061;-79
2022/12/14 01:25:20;;;;;;;15.70;9.65;;;;;;;;;;4977404;28;20057;-78
2022/12/14 01:27:47;;;;;;;15.20;10.32;;;;;;;;;;4977191;28;20064;-78
2022/12/14 01:30:15;;;;;;;15.68;9.45;;;;;;;;;;4961096;28;20059;-78
2022/12/14 01:32:42;;;;;;;16.77;10.10;;;;;;;;;;4966458;28;20050;-78
2022/12/14 01:35:09;;;;;;;15.13;9.68;;;;;;;;;;4956772;28;20054;-79
2022/12/14 01:37:35;;;;;;;15.38;10.35;;;;;;;;;;4957990;28;20126;-79
2022/12/14 01:40:03;;;;;;;12.85;8.95;;;;;;;;;;4996062;28;20419;-79
2022/12/14 01:42:29;;;;;;;15.38;10.38;;;;;;;;;;4981228;28;20526;-78
2022/12/14 01:44:57;;;;;;;14.52;9.73;;;;;;;;;;4980636;28;20054;-78
2022/12/14 01:47:45;;;;;;;15.02;9.93;;;;;;;;;;4979700;28;20068;-77
2022/12/14 01:50:18;;;;;;;15.85;9.95;;;;;;;;;;4994638;28;20054;-78
2022/12/14 01:52:46;;;;;;;15.40;10.98;;;;;;;;;;4980158;28;20054;-81
2022/12/14 01:55:33;;;;;;;15.55;9.43;;;;;;;;;;4964035;28;20058;-78
2022/12/14 01:58:03;;;;;;;15.90;10.27;;;;;;;;;;4978038;28;20061;-78
2022/12/14 02:00:30;;;;;;;15.00;10.90;;;;;;;;;;4977191;28;20054;-77
2022/12/14 02:03:15;;;;;;;14.57;9.82;;;;;;;;;;4977567;28;20054;-78
2022/12/14 02:05:47;;;;;;;14.63;10.50;;;;;;;;;;4978876;28;20054;-78
2022/12/14 02:08:14;;;;;;;15.47;10.83;;;;;;;;;;4977221;28;20542;-77
2022/12/14 02:10:40;;;;;;;14.85;10.65;;;;;;;;;;4961192;28;20422;-79
2022/12/14 02:13:18;;;;;;;15.18;10.35;;;;;;;;;;4961675;28;20054;-79
2022/12/14 02:15:45;;;;;;;14.70;10.23;;;;;;;;;;4978745;28;20046;-79
2022/12/14 02:18:16;;;;;;;17.48;10.85;;;;;;;;;;4961869;28;20054;-79
2022/12/14 02:21:20;;;;;;;15.52;10.70;;;;;;;;;;4961962;28;20047;-77
2022/12/14 02:24:15;;;;;;;17.65;11.57;;;;;;;;;;4940638;28;20503;-78
2022/12/14 02:27:15;;;;;;;18.48;11.50;;;;;;;;;;4993560;28;20054;-78
2022/12/14 02:30:15;;;;;;;15.55;10.88;;;;;;;;;;4996075;28;20061;-78
2022/12/14 02:32:47;;;;;;;18.08;11.32;;;;;;;;;;4927630;28;20050;-78
2022/12/14 02:35:14;;;;;;;18.00;11.23;;;;;;;;;;4994671;28;20062;-78
2022/12/14 02:37:51;;;;;;;18.55;11.77;;;;;;;;;;4994472;28;20051;-78
2022/12/14 02:40:24;;;;;;;17.20;11.88;;;;;;;;;;4994321;28;20058;-78
2022/12/14 02:43:06;;;;;;;;;;;;;;;;;;4979057;28;20053;-78
2022/12/14 02:45:40;;;;;;;15.52;10.45;;;;;;;;;;4994566;28;19922;-78
2022/12/14 02:48:19;;;;;;;17.63;11.20;;;;;;;;;;4978168;28;20050;-76
2022/12/14 02:51:05;;;;;;;17.10;11.43;;;;;;;;;;4975831;28;20046;-77
2022/12/14 02:53:41;;;;;;;18.40;12.63;;;;;;;;;;4977039;28;20050;-77
2022/12/14 02:56:11;;;;;;;18.10;12.68;;;;;;;;;;4976747;28;20066;-77
2022/12/14 02:58:39;;;;;;;17.17;11.65;;;;;;;;;;4976712;28;20054;-77
2022/12/14 03:01:08;;;;;;;17.67;12.02;;;;;;;;;;4975946;28;20507;-77
2022/12/14 03:03:35;;;;;;;18.50;12.50;;;;;;;;;;4976341;28;20054;-77
2022/12/14 03:06:13;;;;;;;17.20;11.60;;;;;;;;;;4976610;28;20433;-77
2022/12/14 03:08:42;;;;;;;20.63;11.55;;;;;;;;;;4978837;28;20104;-78
2022/12/14 03:11:11;;;;;;;17.40;11.95;;;;;;;;;;4976785;28;20046;-77
2022/12/14 03:13:47;;;;;;;17.17;11.77;;;;;;;;;;4959713;28;20050;-77
2022/12/14 03:16:21;;;;;;;17.48;12.02;;;;;;;;;;4991505;28;20067;-77
2022/12/14 03:19:22;;;;;;;17.75;11.52;;;;;;;;;;4977066;28;20065;-77
2022/12/14 03:21:53;;;;;;;18.27;12.15;;;;;;;;;;4992750;28;20061;-78
2022/12/14 03:24:44;;;;;;;17.35;12.25;;;;;;;;;;4993146;28;20116;-77
2022/12/14 03:27:18;;;;;;;18.20;11.43;;;;;;;;;;4981365;28;20508;-78
2022/12/14 03:29:51;;;;;;;20.33;13.27;;;;;;;;;;4961381;28;20054;-77
2022/12/14 03:32:18;;;;;;;;;;;;;;;;;;4961609;28;20076;-78
2022/12/14 03:34:48;;;;;;;18.23;11.85;;;;;;;;;;4977242;28;19922;-77
2022/12/14 03:37:19;;;;;;;18.08;11.80;;;;;;;;;;4962291;28;20052;-77
2022/12/14 03:39:46;;;;;;;20.90;13.48;;;;;;;;;;4975093;28;20081;-77
2022/12/14 03:42:22;;;;;;;18.77;13.15;;;;;;;;;;4974229;28;20050;-77
2022/12/14 03:45:00;;;;;;;21.00;12.63;;;;;;;;;;4991541;28;20050;-78
2022/12/14 03:47:46;;;;;;;18.55;12.68;;;;;;;;;;4975095;28;20058;-77
2022/12/14 03:50:19;;;;;;;20.38;13.10;;;;;;;;;;4974445;28;20892;-77
2022/12/14 03:53:04;;;;;;;21.27;14.35;;;;;;;;;;4962887;28;20046;-77
2022/12/14 03:55:46;;;;;;;21.90;13.90;;;;;;;;;;4991095;28;20062;-77
2022/12/14 03:58:23;;;;;;;25.20;13.70;;;;;;;;;;4990939;28;20066;-77
2022/12/14 04:01:09;;;;;;;17.73;12.68;;;;;;;;;;4990105;28;20050;-77
2022/12/14 04:03:42;;;;;;;19.02;13.48;;;;;;;;;;4990852;28;20157;-77
2022/12/14 04:06:27;;;;;;;21.80;14.32;;;;;;;;;;4975570;28;20058;-77
2022/12/14 04:09:16;;;;;;;23.83;14.63;;;;;;;;;;4991711;28;20061;-79
2022/12/14 04:20:26;;;;;;;21.73;14.52;;;;;;;;;;4990715;28;20424;-77
2022/12/14 04:22:56;;;;;;;20.35;13.55;;;;;;;;;;4991967;28;20442;-77
2022/12/14 04:31:05;;;;;;;19.83;13.25;;;;;;;;;;4959157;28;20058;-78
2022/12/14 04:33:47;;;;;;;20.20;15.13;;;;;;;;;;4956771;28;20062;-78
2022/12/14 04:36:54;;;;;;;24.17;14.93;;;;;;;;;;4975005;28;20529;-78
2022/12/14 04:39:43;;;;;;;22.83;15.45;;;;;;;;;;4976350;28;20058;-77
2022/12/14 04:42:10;;;;;;;21.20;14.68;;;;;;;;;;4992990;28;20050;-77
2022/12/14 04:44:39;;;;;;;21.40;14.95;;;;;;;;;;4997016;28;20046;-77
2022/12/14 04:47:08;;;;;;;21.23;14.57;;;;;;;;;;4994638;28;20125;-77
2022/12/14 04:49:43;;;;;;;22.48;15.18;;;;;;;;;;4962184;28;20055;-76
2022/12/14 04:52:48;;;;;;;22.15;14.95;;;;;;;;;;4964795;28;20054;-77
2022/12/14 04:55:37;;;;;;;23.08;15.80;;;;;;;;;;4962147;28;20058;-77
2022/12/14 04:58:14;;;;;;;21.80;14.90;;;;;;;;;;4991875;28;20065;-77
2022/12/14 05:01:00;;;;;;;23.23;14.85;;;;;;;;;;4992001;28;20054;-77
2022/12/14 05:03:30;;;;;;;25.33;15.80;;;;;;;;;;4962054;28;20058;-77
2022/12/14 05:06:01;;;;;;;23.73;15.68;;;;;;;;;;4960862;28;20081;-77
2022/12/14 05:08:51;;;;;;;23.02;15.05;;;;;;;;;;4991183;28;20050;-76
2022/12/14 05:11:23;;;;;;;23.95;16.60;;;;;;;;;;4973985;28;20149;-77
2022/12/14 05:14:27;;;;;;;21.17;14.43;;;;;;;;;;4974140;28;20062;-77
2022/12/14 05:16:54;;;;;;;23.88;16.75;;;;;;;;;;4945339;28;20054;-77
2022/12/14 05:19:25;;;;;;;22.33;15.32;;;;;;;;;;4966168;28;20064;-77
2022/12/14 05:21:53;;;;;;;25.55;16.83;;;;;;;;;;4978045;28;20047;-77
2022/12/14 05:24:19;;;;;;;24.17;15.70;;;;;;;;;;4981950;28;20050;-77
2022/12/14 05:26:46;;;;;;;22.65;15.77;;;;;;;;;;4999763;28;20051;-78
2022/12/14 05:29:13;;;;;;;23.88;16.70;;;;;;;;;;4995619;28;20788;-78
2022/12/14 05:31:40;;;;;;;23.05;15.60;;;;;;;;;;4994962;28;20148;-78
2022/12/14 05:34:14;;;;;;;21.25;14.93;;;;;;;;;;4966433;28;20062;-78
2022/12/14 05:36:41;;;;;;;21.23;15.65;;;;;;;;;;4981056;28;20054;-78
2022/12/14 05:39:07;;;;;;;25.27;16.60;;;;;;;;;;4987888;28;20114;-79
2022/12/14 05:41:34;;;;;;;21.52;15.05;;;;;;;;;;4980782;28;20142;-78
2022/12/14 05:44:01;;;;;;;22.88;15.65;;;;;;;;;;4980903;28;20054;-78
2022/12/14 05:46:28;;;;;;;26.00;16.73;;;;;;;;;;4996991;28;20054;-79
2022/12/14 05:48:55;;;;;;;23.52;16.55;;;;;;;;;;4981420;28;20058;-79
2022/12/14 05:51:22;;;;;;;22.77;14.73;;;;;;;;;;4980239;28;20058;-77
2022/12/14 05:53:48;;;;;;;24.02;15.88;;;;;;;;;;4993873;28;20542;-77
2022/12/14 05:56:15;;;;;;;24.15;16.48;;;;;;;;;;4961498;28;20054;-77
2022/12/14 05:58:42;;;;;;;24.20;17.02;;;;;;;;;;4979169;28;20050;-78
2022/12/14 06:01:10;;;;;;;28.30;18.70;;;;;;;;;;4994889;28;20076;-78
2022/12/14 06:03:44;;;;;;;31.77;19.35;;;;;;;;;;4980558;28;20062;-78
2022/12/14 06:06:12;;;;;;;25.15;16.75;;;;;;;;;;4979312;28;20086;-78
2022/12/14 06:08:42;;;;;;;24.38;16.95;;;;;;;;;;4995099;28;20057;-78
2022/12/14 06:11:16;;;;;;;22.35;14.75;;;;;;;;;;4995008;28;20566;-77
2022/12/14 06:13:43;;;;;;;23.02;15.23;;;;;;;;;;4978805;28;20050;-78
2022/12/14 06:16:14;;;;;;;20.80;15.35;;;;;;;;;;4962567;28;20062;-77
2022/12/14 06:18:46;;;;;;;25.48;16.50;;;;;;;;;;4978207;28;20050;-78
2022/12/14 06:21:14;;;;;;;23.50;15.52;;;;;;;;;;4996391;28;20509;-78
2022/12/14 06:23:41;;;;;;;26.40;17.98;;;;;;;;;;4978898;28;20066;-87
2022/12/14 06:26:08;;;;;;;24.30;16.15;;;;;;;;;;4964498;28;20054;-87
2022/12/14 06:28:35;;;;;;;23.85;16.38;;;;;;;;;;4963522;28;20054;-85
2022/12/14 06:31:02;;;;;;;24.63;17.05;;;;;;;;;;4968834;28;20070;-78
2022/12/14 06:33:31;;;;;;;24.02;16.42;;;;;;;;;;4990609;28;20054;-79
2022/12/14 06:35:58;;;;;;;25.67;17.20;;;;;;;;;;4957080;28;20058;-78
2022/12/14 06:38:24;;;;;;;26.67;18.92;;;;;;;;;;4994642;28;20422;-78
2022/12/14 06:40:51;;;;;;;27.20;18.30;;;;;;;;;;4972982;28;20054;-78
2022/12/14 06:43:19;;;;;;;29.98;19.05;;;;;;;;;;4976164;28;20519;-77
2022/12/14 06:45:46;;;;;;;27.08;18.15;;;;;;;;;;4978150;28;20054;-77
2022/12/14 06:48:13;;;;;;;28.20;18.58;;;;;;;;;;4977207;28;20505;-78
2022/12/14 06:50:40;;;;;;;26.75;18.13;;;;;;;;;;4966869;28;20054;-78
2022/12/14 06:53:11;;;;;;;24.55;17.05;;;;;;;;;;4957047;28;20046;-79
2022/12/14 06:55:38;;;;;;;29.40;19.30;;;;;;;;;;4978936;28;20052;-79
2022/12/14 06:58:04;;;;;;;27.92;19.23;;;;;;;;;;4978714;28;20088;-78
2022/12/14 07:00:31;;;;;;;29.25;18.60;;;;;;;;;;4979298;28;20439;-79
2022/12/14 07:02:58;;;;;;;28.15;18.25;;;;;;;;;;4978894;28;20050;-79
2022/12/14 07:05:25;;;;;;;29.42;18.98;;;;;;;;;;5001754;28;20056;-78
2022/12/14 07:07:52;;;;;;;28.73;19.42;;;;;;;;;;4988535;28;20054;-82
2022/12/14 07:10:18;;;;;;;29.95;20.00;;;;;;;;;;4981409;28;20060;-80
2022/12/14 07:12:45;;;;;;;29.58;19.50;;;;;;;;;;4994897;28;20442;-83
2022/12/14 07:15:12;;;;;;;31.90;19.58;;;;;;;;;;4994748;28;20050;-83
2022/12/14 07:17:39;;;;;;;29.35;20.38;;;;;;;;;;4963141;28;20054;-85
2022/12/14 07:20:06;;;;;;;29.58;19.42;;;;;;;;;;4965553;28;20050;-85
2022/12/14 07:22:34;;;;;;;32.50;19.45;;;;;;;;;;4997222;28;20058;-82
2022/12/14 07:25:01;;;;;;;30.38;20.30;;;;;;;;;;4996782;28;20054;-85
2022/12/14 07:27:28;;;;;;;29.92;20.25;;;;;;;;;;4979496;28;20069;-84
2022/12/14 07:29:55;;;;;;;30.90;19.77;;;;;;;;;;4980366;28;20057;-82
2022/12/14 07:32:22;;;;;;;28.88;19.27;;;;;;;;;;4997524;28;20046;-85
2022/12/14 07:34:49;;;;;;;32.95;20.80;;;;;;;;;;4980716;28;20054;-83
2022/12/14 07:37:16;;;;;;;30.85;20.55;;;;;;;;;;4978725;28;20412;-78
2022/12/14 07:39:42;;;;;;;31.17;19.98;;;;;;;;;;4993951;28;20054;-78
2022/12/14 07:42:09;;;;;;;30.67;20.80;;;;;;;;;;4994916;28;20415;-85
2022/12/14 07:44:36;;;;;;;31.23;21.20;;;;;;;;;;4963675;28;20058;-83
2022/12/14 07:47:03;;;;;;;30.83;20.08;;;;;;;;;;5008095;28;20052;-81
2022/12/14 07:49:29;;;;;;;32.30;21.10;;;;;;;;;;4996947;28;20058;-83
2022/12/14 07:51:56;;;;;;;32.10;21.30;;;;;;;;;;4983340;28;20042;-82
2022/12/14 07:54:25;;;;;;;33.03;21.73;;;;;;;;;;4983127;28;20133;-86
2022/12/14 07:56:52;;;;;;;34.55;22.33;;;;;;;;;;4980983;28;20482;-83
2022/12/14 07:59:20;;;;;;;31.75;19.70;;;;;;;;;;4997720;28;20483;-86
2022/12/14 08:01:46;;;;;;;31.50;20.90;;;;;;;;;;4995474;28;20604;-84
2022/12/14 08:04:15;;;;;;;31.52;20.75;;;;;;;;;;4995157;28;20058;-83
2022/12/14 08:06:43;;;;;;;30.90;20.52;;;;;;;;;;4979952;28;20054;-85
2022/12/14 08:09:10;;;;;;;31.27;20.23;;;;;;;;;;4963842;28;20058;-83
2022/12/14 08:11:38;;;;;;;31.45;20.42;;;;;;;;;;4963653;28;20053;-86
2022/12/14 08:14:09;;;;;;;31.05;20.25;;;;;;;;;;4995451;28;20529;-86
2022/12/14 08:16:36;;;;;;;33.90;21.35;;;;;;;;;;4978844;28;20049;-86
2022/12/14 08:19:03;;;;;;;33.13;21.77;;;;;;;;;;4979554;28;20050;-85
2022/12/14 08:21:29;;;;;;;31.70;21.38;;;;;;;;;;4964079;28;20057;-84
2022/12/14 08:23:56;;;;;;;34.20;21.42;;;;;;;;;;4980540;28;20541;-86
2022/12/14 08:26:24;;;;;;;29.17;20.48;;;;;;;;;;4964569;28;20137;-85
2022/12/14 08:28:58;;;;;;;30.35;21.25;;;;;;;;;;4981451;28;20636;-85
2022/12/14 08:31:26;;;;;;;35.30;21.83;;;;;;;;;;4979561;28;20054;-84
2022/12/14 08:33:55;;;;;;;31.02;20.52;;;;;;;;;;4967335;28;20765;-84
2022/12/14 08:36:27;;;;;;;34.47;21.25;;;;;;;;;;4974600;28;20054;-80
2022/12/14 08:38:55;;;;;;;31.58;20.75;;;;;;;;;;4975302;28;20054;-79
2022/12/14 08:41:23;;;;;;;33.92;21.75;;;;;;;;;;4992450;28;20054;-78
2022/12/14 08:43:51;;;;;;;32.30;21.15;;;;;;;;;;4975789;28;20081;-81
2022/12/14 08:46:18;;;;;;;30.38;21.05;;;;;;;;;;4976451;28;20507;-79
2022/12/14 08:48:46;;;;;;;33.63;21.70;;;;;;;;;;4978257;28;20489;-82
2022/12/14 08:51:13;;;;;;;38.90;22.38;;;;;;;;;;4965214;28;20072;-82
2022/12/14 08:53:40;;;;;;;32.97;21.08;;;;;;;;;;4982598;28;20050;-81
2022/12/14 08:56:11;;;;;;;33.38;21.35;;;;;;;;;;4997939;28;20056;-81
2022/12/14 08:58:39;;;;;;;34.10;21.98;;;;;;;;;;4989810;28;20594;-81
2022/12/14 09:01:18;;;;;;;35.58;23.15;;;;;;;;;;4981551;28;20517;-83
2022/12/14 09:03:46;;;;;;;34.20;21.83;;;;;;;;;;4995298;28;20043;-81
2022/12/14 09:06:19;;;;;;;36.05;21.58;;;;;;;;;;4969427;28;20046;-81
2022/12/14 09:08:45;;;;;;;37.53;24.38;;;;;;;;;;4987784;28;20129;-81
2022/12/14 09:11:17;;;;;;;37.38;22.65;;;;;;;;;;4983759;28;20065;-81
2022/12/14 09:13:45;;;;;;;39.00;23.38;;;;;;;;;;4966443;28;20093;-81
2022/12/14 09:16:17;;;;;;;37.25;23.17;;;;;;;;;;4965337;28;20070;-81
2022/12/14 09:18:45;;;;;;;39.85;24.88;;;;;;;;;;4980610;28;20062;-82
2022/12/14 09:21:12;;;;;;;36.25;24.00;;;;;;;;;;4963434;28;20061;-81
2022/12/14 09:23:39;;;;;;;41.20;24.85;;;;;;;;;;4979734;28;20050;-82
2022/12/14 09:26:07;;;;;;;37.33;23.17;;;;;;;;;;4966173;28;20058;-80
2022/12/14 09:28:35;;;;;;;37.00;22.27;;;;;;;;;;4997390;28;20058;-78
2022/12/14 09:31:05;;;;;;;35.28;23.35;;;;;;;;;;4979740;28;20133;-83
2022/12/14 09:33:32;;;;;;;39.65;24.02;;;;;;;;;;4962110;28;20480;-81
2022/12/14 09:36:04;;;;;;;36.33;24.38;;;;;;;;;;4979269;28;20146;-83
2022/12/14 09:38:32;;;;;;;36.85;24.05;;;;;;;;;;4962945;28;20496;-84
2022/12/14 09:41:01;;;;;;;36.72;23.75;;;;;;;;;;4946275;28;20054;-83
2022/12/14 09:43:42;;;;;;;39.83;25.33;;;;;;;;;;4951450;28;20046;-84
2022/12/14 09:46:47;;;;;;;37.60;24.88;;;;;;;;;;4982668;28;20089;-84
2022/12/14 09:49:26;;;;;;;39.97;23.85;;;;;;;;;;4999356;28;20058;-83
2022/12/14 09:51:54;;;;;;;38.17;24.85;;;;;;;;;;4998955;28;20101;-83
2022/12/14 09:54:23;;;;;;;38.60;23.92;;;;;;;;;;4966986;28;20053;-83
2022/12/14 09:56:51;;;;;;;37.55;24.83;;;;;;;;;;5000169;28;20050;-83
2022/12/14 09:59:19;;;;;;;37.72;24.50;;;;;;;;;;4973463;28;20050;-84
2022/12/14 10:01:56;;;;;;;35.75;23.67;;;;;;;;;;4984107;28;20417;-83
2022/12/14 10:05:04;;;;;;;36.92;23.02;;;;;;;;;;4985157;28;20046;-83
2022/12/14 10:07:46;;;;;;;39.90;25.38;;;;;;;;;;4998809;28;20050;-83
2022/12/14 10:10:15;;;;;;;37.50;23.08;;;;;;;;;;4998651;28;20050;-83
2022/12/14 10:12:48;;;;;;;37.30;24.00;;;;;;;;;;4982841;28;20418;-83
2022/12/14 10:15:27;;;;;;;;;;;;;;;;;;4999973;28;20141;-83
2022/12/14 10:18:00;;;;;;;35.22;23.83;;;;;;;;;;4999003;28;19926;-83
2022/12/14 10:20:36;;;;;;;41.80;24.58;;;;;;;;;;4997982;28;20072;-83
2022/12/14 10:23:02;;;;;;;38.65;25.10;;;;;;;;;;4982751;28;20046;-83
2022/12/14 10:25:33;;;;;;;36.08;24.67;;;;;;;;;;4982654;28;20700;-83
2022/12/14 10:28:13;;;;;;;36.58;24.20;;;;;;;;;;4998189;28;20050;-83
2022/12/14 10:30:40;;;;;;;43.33;24.63;;;;;;;;;;4982404;28;20054;-83
2022/12/14 10:33:16;;;;;;;36.53;23.40;;;;;;;;;;4981441;28;20602;-83
2022/12/14 10:35:54;;;;;;;40.20;24.77;;;;;;;;;;4997535;28;20050;-82
2022/12/14 10:38:44;;;;;;;42.20;24.83;;;;;;;;;;4965661;28;20061;-83
2022/12/14 10:41:30;;;;;;;36.53;24.52;;;;;;;;;;4984657;28;20054;-83
2022/12/14 10:44:26;;;;;;;43.42;25.42;;;;;;;;;;4988157;28;20050;-83
2022/12/14 10:47:03;;;;;;;40.40;25.35;;;;;;;;;;4999460;28;20077;-83
2022/12/14 10:49:31;;;;;;;37.95;25.48;;;;;;;;;;5002742;28;20062;-84
2022/12/14 10:52:16;;;;;;;37.15;24.00;;;;;;;;;;4985412;28;20078;-81
2022/12/14 10:54:44;;;;;;;41.80;25.67;;;;;;;;;;4986982;28;20046;-81
2022/12/14 10:57:16;;;;;;;41.58;25.48;;;;;;;;;;5003413;28;20153;-82
2022/12/14 10:59:43;;;;;;;39.80;25.55;;;;;;;;;;4976679;28;20421;-83
2022/12/14 11:02:30;;;;;;;39.90;24.67;;;;;;;;;;4976224;28;20073;-82
2022/12/14 11:04:59;;;;;;;39.53;24.98;;;;;;;;;;4988446;28;20054;-83
2022/12/14 11:07:32;;;;;;;38.22;25.17;;;;;;;;;;4969150;28;20055;-82
2022/12/14 11:10:25;;;;;;;40.22;26.13;;;;;;;;;;4993206;28;20506;-80
2022/12/14 11:13:04;;;;;;;36.47;23.20;;;;;;;;;;4989230;28;20054;-81
2022/12/14 11:15:39;;;;;;;39.95;25.45;;;;;;;;;;4991018;28;20070;-82
2022/12/14 11:18:15;;;;;;;36.58;23.67;;;;;;;;;;4960117;28;20046;-82
2022/12/14 11:20:53;;;;;;;37.78;24.20;;;;;;;;;;5016853;28;20060;-82
2022/12/14 11:23:26;;;;;;;41.15;24.25;;;;;;;;;;5011769;28;20074;-82
2022/12/14 11:25:53;;;;;;;;;;;;;;;;;;5012681;28;20088;-82
2022/12/14 11:28:32;;;;;;;38.90;24.30;;;;;;;;;;4990671;28;19922;-82
2022/12/14 11:31:40;;;;;;;38.85;24.65;;;;;;;;;;5000457;28;20066;-83
2022/12/14 11:34:21;;;;;;;38.55;24.63;;;;;;;;;;4991284;28;20046;-84
2022/12/14 11:36:48;;;;;;;43.30;25.50;;;;;;;;;;4984052;28;20422;-86
2022/12/14 11:39:23;;;;;;;39.55;24.42;;;;;;;;;;4982000;28;20058;-85
2022/12/14 11:42:03;;;;;;;38.83;25.17;;;;;;;;;;4981041;28;20057;-85
2022/12/14 11:44:32;;;;;;;37.45;24.65;;;;;;;;;;4969419;28;20046;-81
2022/12/14 11:46:59;;;;;;;38.17;25.48;;;;;;;;;;4980795;28;20416;-82
2022/12/14 11:49:26;;;;;;;39.40;25.10;;;;;;;;;;5001237;28;20046;-85
2022/12/14 11:52:18;;;;;;;36.33;24.13;;;;;;;;;;4998800;28;20062;-86
2022/12/14 11:54:48;;;;;;;40.23;24.77;;;;;;;;;;4995451;28;20114;-85
2022/12/14 11:57:36;;;;;;;39.63;25.70;;;;;;;;;;4982408;28;20059;-81
2022/12/14 12:00:09;;;;;;;40.17;23.95;;;;;;;;;;4993895;28;20050;-81
2022/12/14 12:02:39;;;;;;;42.05;25.73;;;;;;;;;;4993437;28;20042;-81
2022/12/14 12:05:10;;;;;;;40.97;25.42;;;;;;;;;;4992879;28;20046;-83
2022/12/14 12:07:43;;;;;;;38.88;24.20;;;;;;;;;;4996174;28;20410;-83
2022/12/14 12:10:19;;;;;;;37.58;24.40;;;;;;;;;;4977291;28;20061;-82
2022/12/14 12:12:59;;;;;;;39.95;26.35;;;;;;;;;;4998683;28;20110;-82
2022/12/14 12:15:40;;;;;;;42.85;25.85;;;;;;;;;;4972705;28;20093;-80
2022/12/14 12:18:24;;;;;;;40.22;25.02;;;;;;;;;;4975121;28;20068;-82
2022/12/14 12:21:00;;;;;;;44.53;26.90;;;;;;;;;;4953507;28;20049;-82
2022/12/14 12:23:52;;;;;;;42.72;26.73;;;;;;;;;;4981887;28;20049;-82
2022/12/14 12:29:25;;;;;;;42.90;26.70;;;;;;;;;;5370616;23;20059;-82
2022/12/14 12:32:12;;;;;;;42.85;28.60;;;;;;;;;;4988815;28;20052;-83
2022/12/14 12:34:49;;;;;;;42.53;27.20;;;;;;;;;;4939287;28;20134;-88
2022/12/14 12:37:18;;;;;;;42.22;27.20;;;;;;;;;;4957609;28;20057;-83
2022/12/14 12:39:57;;;;;;;40.05;26.80;;;;;;;;;;4958698;28;20536;-83
2022/12/14 12:42:30;;;;;;;41.20;26.67;;;;;;;;;;4955927;28;20078;-84
2022/12/14 12:45:24;;;;;;;41.30;26.88;;;;;;;;;;4971477;28;20423;-84
2022/12/14 12:47:59;;;;;;;41.80;26.70;;;;;;;;;;4980712;28;20058;-84
2022/12/14 12:50:31;;;;;;;44.40;28.02;;;;;;;;;;4966755;28;20166;-85
2022/12/14 12:53:05;;;;;;;39.85;25.67;;;;;;;;;;4949521;28;20523;-83
2022/12/14 12:55:39;;;;;;;41.45;27.75;;;;;;;;;;4952192;28;20062;-78
2022/12/14 12:58:08;;;;;;;42.30;27.15;;;;;;;;;;4969177;28;20226;-78
2022/12/14 13:00:35;;;;;;;39.53;25.92;;;;;;;;;;4965696;28;20078;-78
2022/12/14 13:03:11;;;;;;;45.15;28.23;;;;;;;;;;4941040;28;20051;-77
2022/12/14 13:05:39;;;;;;;42.00;27.52;;;;;;;;;;4944490;28;20471;-78
2022/12/14 13:08:30;;;;;;;41.70;27.38;;;;;;;;;;4950881;28;20097;-79
2022/12/14 13:11:01;;;;;;;;;;;;;;;;;;4983972;28;20059;-79
2022/12/14 13:13:50;;;;;;;41.88;27.30;;;;;;;;;;4981433;28;19926;-78
2022/12/14 13:16:32;;;;;;;45.58;28.23;;;;;;;;;;4962169;28;20109;-77
2022/12/14 13:19:25;;;;;;;44.97;28.35;;;;;;;;;;4958705;28;20054;-77
2022/12/14 13:22:13;;;;;;;44.70;27.73;;;;;;;;;;4958984;28;20067;-76
2022/12/14 13:24:44;;;;;;;50.92;30.08;;;;;;;;;;4952922;28;20057;-76
2022/12/14 13:27:42;;;;;;;52.40;31.92;;;;;;;;;;4972239;28;20051;-77
2022/12/14 13:30:24;;;;;;;49.30;30.13;;;;;;;;;;4982660;28;20050;-77
2022/12/14 13:33:00;;;;;;;56.05;30.85;;;;;;;;;;4969257;28;20055;-76
2022/12/14 13:35:50;;;;;;;51.38;32.20;;;;;;;;;;4971089;28;20053;-76
2022/12/14 13:38:44;;;;;;;56.35;32.55;;;;;;;;;;4986508;28;20062;-76
2022/12/14 13:41:40;;;;;;;53.42;32.47;;;;;;;;;;4972459;28;20066;-77
2022/12/14 13:44:33;;;;;;;49.55;30.75;;;;;;;;;;4937284;29;20051;-77
2022/12/14 13:47:21;;;;;;;52.53;31.63;;;;;;;;;;4953506;29;20138;-77
2022/12/14 13:49:52;;;;;;;50.08;30.70;;;;;;;;;;4925270;29;20063;-77
2022/12/14 13:52:44;;;;;;;50.88;30.35;;;;;;;;;;4924530;29;20055;-78
2022/12/14 13:55:39;;;;;;;52.13;31.20;;;;;;;;;;4959990;28;20459;-78
2022/12/14 13:58:35;;;;;;;48.92;30.45;;;;;;;;;;4955771;28;20098;-78
2022/12/14 14:01:35;;;;;;;50.05;31.15;;;;;;;;;;4958864;28;20894;-78
2022/12/14 14:04:13;;;;;;;53.38;32.25;;;;;;;;;;4966956;28;20106;-78
2022/12/14 14:06:42;;;;;;;54.88;33.10;;;;;;;;;;4967047;28;20049;-77
2022/12/14 14:09:27;;;;;;;56.40;33.47;;;;;;;;;;4941181;28;20121;-78
2022/12/14 14:12:20;;;;;;;53.53;33.33;;;;;;;;;;4989660;28;20101;-83
2022/12/14 14:14:57;;;;;;;54.05;33.75;;;;;;;;;;4972065;28;20047;-78
2022/12/14 14:17:34;;;;;;;52.35;33.88;;;;;;;;;;4971686;28;20498;-78
2022/12/14 14:20:23;;;;;;;52.70;32.58;;;;;;;;;;4957025;28;20059;-78
2022/12/14 14:23:12;;;;;;;54.80;31.95;;;;;;;;;;4961384;28;20507;-78
2022/12/14 14:25:46;;;;;;;53.22;33.60;;;;;;;;;;4994394;28;20050;-78
2022/12/14 14:28:15;;;;;;;53.70;33.60;;;;;;;;;;4957595;28;20574;-77
2022/12/14 14:30:52;;;;;;;47.15;30.00;;;;;;;;;;4933041;28;20114;-76
2022/12/14 14:33:31;;;;;;;52.78;32.90;;;;;;;;;;4941679;28;20054;-78
2022/12/14 14:36:25;;;;;;;54.08;32.75;;;;;;;;;;4959565;28;20050;-78
2022/12/14 14:38:53;;;;;;;54.10;32.70;;;;;;;;;;4957854;28;20718;-78
2022/12/14 14:41:25;;;;;;;56.50;32.63;;;;;;;;;;4964382;28;20058;-77
2022/12/14 14:43:57;;;;;;;49.63;30.75;;;;;;;;;;4971414;28;20058;-77
2022/12/14 14:46:38;;;;;;;53.45;30.75;;;;;;;;;;4962834;28;20053;-82
2022/12/14 14:49:05;;;;;;;51.67;32.45;;;;;;;;;;4958196;28;20057;-85
2022/12/14 14:51:34;;;;;;;50.92;30.60;;;;;;;;;;4953833;28;20082;-84
2022/12/14 14:54:16;;;;;;;54.58;32.25;;;;;;;;;;4959437;28;20047;-84
2022/12/14 14:57:03;;;;;;;52.47;31.05;;;;;;;;;;4967482;28;20051;-83
2022/12/14 14:59:59;;;;;;;49.03;29.85;;;;;;;;;;4941205;28;20066;-83
2022/12/14 15:02:39;;;;;;;51.78;31.42;;;;;;;;;;4972645;28;20065;-84
2022/12/14 15:05:17;;;;;;;49.45;29.85;;;;;;;;;;4939712;28;20047;-86
2022/12/14 15:08:16;;;;;;;46.75;28.50;;;;;;;;;;4961515;28;20054;-87
2022/12/14 15:10:44;;;;;;;47.22;29.90;;;;;;;;;;4950010;28;20050;-86
2022/12/14 15:13:23;;;;;;;47.63;29.25;;;;;;;;;;4940618;28;20055;-85
2022/12/14 15:15:51;;;;;;;49.30;29.85;;;;;;;;;;4933537;28;20125;-87
2022/12/14 15:18:29;;;;;;;51.72;31.42;;;;;;;;;;4957720;28;20059;-87